sensor_id;sensor_type;location;lat;lon;timestamp;temperature;humidity
68691;DHT22;55675;49.588;8.640;2023-06-22T00:01:14;25.50;67.90
68691;DHT22;55675;49.588;8.640;2023-06-22T00:03:40;25.40;68.40
68691;DHT22;55675;49.588;8.640;2023-06-22T00:06:06;25.40;68.90
68691;DHT22;55675;49.588;8.640;2023-06-22T00:08:31;25.40;69.20
68691;DHT22;55675;49.588;8.640;2023-06-22T00:10:57;25.30;69.10
68691;DHT22;55675;49.588;8.640;2023-06-22T00:13:22;25.30;69.90
68691;DHT22;55675;49.588;8.640;2023-06-22T00:15:48;25.40;69.20
68691;DHT22;55675;49.588;8.640;2023-06-22T00:18:13;25.30;68.80
68691;DHT22;55675;49.588;8.640;2023-06-22T00:20:39;25.30;68.60
68691;DHT22;55675;49.588;8.640;2023-06-22T00:23:06;25.30;68.60
68691;DHT22;55675;49.588;8.640;2023-06-22T00:25:36;25.30;68.70
68691;DHT22;55675;49.588;8.640;2023-06-22T00:28:03;25.30;68.80
68691;DHT22;55675;49.588;8.640;2023-06-22T00:30:29;25.30;69.10
68691;DHT22;55675;49.588;8.640;2023-06-22T00:32:55;25.20;69.60
68691;DHT22;55675;49.588;8.640;2023-06-22T00:35:21;25.20;69.90
68691;DHT22;55675;49.588;8.640;2023-06-22T00:37:46;25.20;69.30
68691;DHT22;55675;49.588;8.640;2023-06-22T00:40:12;25.20;69.40
68691;DHT22;55675;49.588;8.640;2023-06-22T00:42:38;25.20;69.10
68691;DHT22;55675;49.588;8.640;2023-06-22T00:45:05;25.20;68.90
68691;DHT22;55675;49.588;8.640;2023-06-22T00:47:31;25.20;68.30
68691;DHT22;55675;49.588;8.640;2023-06-22T00:49:57;25.30;69.00
68691;DHT22;55675;49.588;8.640;2023-06-22T00:52:23;25.30;70.20
68691;DHT22;55675;49.588;8.640;2023-06-22T00:54:52;25.10;72.60
68691;DHT22;55675;49.588;8.640;2023-06-22T00:57:19;25.00;74.40
68691;DHT22;55675;49.588;8.640;2023-06-22T00:59:45;24.70;76.20
68691;DHT22;55675;49.588;8.640;2023-06-22T01:02:13;24.50;77.90
68691;DHT22;55675;49.588;8.640;2023-06-22T01:04:39;24.30;79.30
68691;DHT22;55675;49.588;8.640;2023-06-22T01:10:11;24.30;79.90
68691;DHT22;55675;49.588;8.640;2023-06-22T01:12:44;24.40;82.20
68691;DHT22;55675;49.588;8.640;2023-06-22T01:15:16;24.30;85.20
68691;DHT22;55675;49.588;8.640;2023-06-22T01:17:45;24.30;86.30
68691;DHT22;55675;49.588;8.640;2023-06-22T01:20:15;24.20;87.20
68691;DHT22;55675;49.588;8.640;2023-06-22T01:23:07;24.20;87.40
68691;DHT22;55675;49.588;8.640;2023-06-22T01:26:01;24.20;87.90
68691;DHT22;55675;49.588;8.640;2023-06-22T01:28:47;24.10;88.00
68691;DHT22;55675;49.588;8.640;2023-06-22T01:31:18;24.10;87.80
68691;DHT22;55675;49.588;8.640;2023-06-22T01:33:50;24.10;88.10
68691;DHT22;55675;49.588;8.640;2023-06-22T01:36:17;24.10;88.80
68691;DHT22;55675;49.588;8.640;2023-06-22T01:38:44;24.10;88.80
68691;DHT22;55675;49.588;8.640;2023-06-22T01:41:11;24.00;89.40
68691;DHT22;55675;49.588;8.640;2023-06-22T01:43:37;24.00;88.70
68691;DHT22;55675;49.588;8.640;2023-06-22T01:46:03;24.00;90.10
68691;DHT22;55675;49.588;8.640;2023-06-22T01:48:30;24.00;90.30
68691;DHT22;55675;49.588;8.640;2023-06-22T01:50:56;23.80;90.30
68691;DHT22;55675;49.588;8.640;2023-06-22T01:53:22;23.80;90.30
68691;DHT22;55675;49.588;8.640;2023-06-22T01:55:48;23.80;90.70
68691;DHT22;55675;49.588;8.640;2023-06-22T01:58:14;23.80;90.80
68691;DHT22;55675;49.588;8.640;2023-06-22T02:00:44;23.80;91.00
68691;DHT22;55675;49.588;8.640;2023-06-22T02:03:35;23.80;91.10
68691;DHT22;55675;49.588;8.640;2023-06-22T02:06:08;23.80;91.30
68691;DHT22;55675;49.588;8.640;2023-06-22T02:08:40;23.70;91.30
68691;DHT22;55675;49.588;8.640;2023-06-22T02:11:08;23.70;91.40
68691;DHT22;55675;49.588;8.640;2023-06-22T02:13:36;23.60;91.70
68691;DHT22;55675;49.588;8.640;2023-06-22T02:16:02;23.50;91.90
68691;DHT22;55675;49.588;8.640;2023-06-22T02:18:27;23.50;92.20
68691;DHT22;55675;49.588;8.640;2023-06-22T02:20:53;23.40;92.40
68691;DHT22;55675;49.588;8.640;2023-06-22T02:23:19;23.40;92.60
68691;DHT22;55675;49.588;8.640;2023-06-22T02:25:45;23.40;92.80
68691;DHT22;55675;49.588;8.640;2023-06-22T02:28:11;23.40;93.00
68691;DHT22;55675;49.588;8.640;2023-06-22T02:30:37;23.40;93.10
68691;DHT22;55675;49.588;8.640;2023-06-22T02:33:02;23.40;93.20
68691;DHT22;55675;49.588;8.640;2023-06-22T02:35:29;23.40;93.30
68691;DHT22;55675;49.588;8.640;2023-06-22T02:38:01;23.30;93.50
68691;DHT22;55675;49.588;8.640;2023-06-22T02:40:28;23.30;93.50
68691;DHT22;55675;49.588;8.640;2023-06-22T02:42:55;23.30;93.60
68691;DHT22;55675;49.588;8.640;2023-06-22T02:45:21;23.20;93.70
68691;DHT22;55675;49.588;8.640;2023-06-22T02:47:46;23.20;93.80
68691;DHT22;55675;49.588;8.640;2023-06-22T02:50:13;23.10;93.80
68691;DHT22;55675;49.588;8.640;2023-06-22T02:52:39;23.20;93.90
68691;DHT22;55675;49.588;8.640;2023-06-22T02:55:05;23.10;94.00
68691;DHT22;55675;49.588;8.640;2023-06-22T02:57:32;23.10;94.20
68691;DHT22;55675;49.588;8.640;2023-06-22T02:59:59;23.10;94.20
68691;DHT22;55675;49.588;8.640;2023-06-22T03:02:24;23.00;94.30
68691;DHT22;55675;49.588;8.640;2023-06-22T03:04:51;23.00;94.40
68691;DHT22;55675;49.588;8.640;2023-06-22T03:07:19;22.90;94.50
68691;DHT22;55675;49.588;8.640;2023-06-22T03:09:45;22.90;94.50
68691;DHT22;55675;49.588;8.640;2023-06-22T03:12:11;22.90;94.60
68691;DHT22;55675;49.588;8.640;2023-06-22T03:14:36;22.90;94.50
68691;DHT22;55675;49.588;8.640;2023-06-22T03:17:02;22.80;94.50
68691;DHT22;55675;49.588;8.640;2023-06-22T03:19:29;22.80;94.60
68691;DHT22;55675;49.588;8.640;2023-06-22T03:21:57;22.80;94.60
68691;DHT22;55675;49.588;8.640;2023-06-22T03:24:22;22.70;94.40
68691;DHT22;55675;49.588;8.640;2023-06-22T03:26:48;22.70;94.60
68691;DHT22;55675;49.588;8.640;2023-06-22T03:29:13;22.70;94.50
68691;DHT22;55675;49.588;8.640;2023-06-22T03:31:39;22.60;94.60
68691;DHT22;55675;49.588;8.640;2023-06-22T03:34:05;22.60;94.80
68691;DHT22;55675;49.588;8.640;2023-06-22T03:36:30;22.60;94.90
68691;DHT22;55675;49.588;8.640;2023-06-22T03:38:56;22.60;95.00
68691;DHT22;55675;49.588;8.640;2023-06-22T03:41:21;22.60;95.00
68691;DHT22;55675;49.588;8.640;2023-06-22T03:43:47;22.60;94.90
68691;DHT22;55675;49.588;8.640;2023-06-22T03:46:13;22.70;94.90
68691;DHT22;55675;49.588;8.640;2023-06-22T03:48:38;22.70;94.80
68691;DHT22;55675;49.588;8.640;2023-06-22T03:51:04;22.80;94.60
68691;DHT22;55675;49.588;8.640;2023-06-22T03:53:29;22.90;94.70
68691;DHT22;55675;49.588;8.640;2023-06-22T03:55:55;22.90;94.50
68691;DHT22;55675;49.588;8.640;2023-06-22T03:58:21;22.90;94.40
68691;DHT22;55675;49.588;8.640;2023-06-22T04:00:48;22.90;94.30
68691;DHT22;55675;49.588;8.640;2023-06-22T04:03:14;22.90;94.10
68691;DHT22;55675;49.588;8.640;2023-06-22T04:05:40;22.90;94.20
68691;DHT22;55675;49.588;8.640;2023-06-22T04:08:06;22.90;94.10
68691;DHT22;55675;49.588;8.640;2023-06-22T04:10:32;22.90;94.10
68691;DHT22;55675;49.588;8.640;2023-06-22T04:12:57;22.90;94.10
68691;DHT22;55675;49.588;8.640;2023-06-22T04:15:23;22.90;94.00
68691;DHT22;55675;49.588;8.640;2023-06-22T04:17:48;23.00;94.00
68691;DHT22;55675;49.588;8.640;2023-06-22T04:20:14;22.90;94.10
68691;DHT22;55675;49.588;8.640;2023-06-22T04:22:39;23.00;94.20
68691;DHT22;55675;49.588;8.640;2023-06-22T04:25:06;23.00;94.30
68691;DHT22;55675;49.588;8.640;2023-06-22T04:27:35;23.00;94.30
68691;DHT22;55675;49.588;8.640;2023-06-22T04:30:03;23.00;94.20
68691;DHT22;55675;49.588;8.640;2023-06-22T04:32:29;23.10;94.20
68691;DHT22;55675;49.588;8.640;2023-06-22T04:34:54;23.10;94.10
68691;DHT22;55675;49.588;8.640;2023-06-22T04:37:20;23.10;94.00
68691;DHT22;55675;49.588;8.640;2023-06-22T04:39:49;23.10;94.00
68691;DHT22;55675;49.588;8.640;2023-06-22T04:42:14;23.10;94.00
68691;DHT22;55675;49.588;8.640;2023-06-22T04:44:40;23.20;93.90
68691;DHT22;55675;49.588;8.640;2023-06-22T04:47:07;23.20;94.00
68691;DHT22;55675;49.588;8.640;2023-06-22T04:49:34;23.30;94.10
68691;DHT22;55675;49.588;8.640;2023-06-22T04:52:05;23.20;94.10
68691;DHT22;55675;49.588;8.640;2023-06-22T04:54:31;23.30;94.00
68691;DHT22;55675;49.588;8.640;2023-06-22T04:56:59;23.30;94.00
68691;DHT22;55675;49.588;8.640;2023-06-22T04:59:28;23.30;94.00
68691;DHT22;55675;49.588;8.640;2023-06-22T05:01:59;23.40;93.90
68691;DHT22;55675;49.588;8.640;2023-06-22T05:04:26;23.40;93.90
68691;DHT22;55675;49.588;8.640;2023-06-22T05:06:53;23.40;93.80
68691;DHT22;55675;49.588;8.640;2023-06-22T05:09:20;23.50;94.00
68691;DHT22;55675;49.588;8.640;2023-06-22T05:11:45;23.60;93.80
68691;DHT22;55675;49.588;8.640;2023-06-22T05:14:11;23.70;93.60
68691;DHT22;55675;49.588;8.640;2023-06-22T05:16:37;23.70;93.60
68691;DHT22;55675;49.588;8.640;2023-06-22T05:19:03;23.90;93.50
68691;DHT22;55675;49.588;8.640;2023-06-22T05:21:30;24.00;93.30
68691;DHT22;55675;49.588;8.640;2023-06-22T05:23:56;24.10;92.90
68691;DHT22;55675;49.588;8.640;2023-06-22T05:26:26;24.30;92.90
68691;DHT22;55675;49.588;8.640;2023-06-22T05:28:52;24.40;92.70
68691;DHT22;55675;49.588;8.640;2023-06-22T05:31:18;24.50;92.40
68691;DHT22;55675;49.588;8.640;2023-06-22T05:33:45;24.50;92.10
68691;DHT22;55675;49.588;8.640;2023-06-22T05:36:12;24.50;92.10
68691;DHT22;55675;49.588;8.640;2023-06-22T05:38:38;24.50;92.30
68691;DHT22;55675;49.588;8.640;2023-06-22T05:41:04;24.50;92.20
68691;DHT22;55675;49.588;8.640;2023-06-22T05:43:30;24.50;91.90
68691;DHT22;55675;49.588;8.640;2023-06-22T05:45:56;24.50;92.00
68691;DHT22;55675;49.588;8.640;2023-06-22T05:48:21;24.70;91.80
68691;DHT22;55675;49.588;8.640;2023-06-22T05:50:47;24.80;91.50
68691;DHT22;55675;49.588;8.640;2023-06-22T05:53:12;24.90;91.20
68691;DHT22;55675;49.588;8.640;2023-06-22T05:55:38;25.00;90.90
68691;DHT22;55675;49.588;8.640;2023-06-22T05:58:03;25.10;90.70
68691;DHT22;55675;49.588;8.640;2023-06-22T06:00:29;25.20;89.00
68691;DHT22;55675;49.588;8.640;2023-06-22T06:02:56;25.20;89.80
68691;DHT22;55675;49.588;8.640;2023-06-22T06:05:22;25.30;89.90
68691;DHT22;55675;49.588;8.640;2023-06-22T06:07:48;25.40;88.90
68691;DHT22;55675;49.588;8.640;2023-06-22T06:10:13;25.60;87.30
68691;DHT22;55675;49.588;8.640;2023-06-22T06:12:39;25.60;84.50
68691;DHT22;55675;49.588;8.640;2023-06-22T06:15:05;25.80;84.20
68691;DHT22;55675;49.588;8.640;2023-06-22T06:17:31;25.90;83.80
68691;DHT22;55675;49.588;8.640;2023-06-22T06:19:58;26.00;82.00
68691;DHT22;55675;49.588;8.640;2023-06-22T06:22:24;26.10;80.60
68691;DHT22;55675;49.588;8.640;2023-06-22T06:24:49;26.20;80.90
68691;DHT22;55675;49.588;8.640;2023-06-22T06:27:15;26.40;80.80
68691;DHT22;55675;49.588;8.640;2023-06-22T06:29:43;26.50;79.20
68691;DHT22;55675;49.588;8.640;2023-06-22T06:32:11;26.70;79.30
68691;DHT22;55675;49.588;8.640;2023-06-22T06:34:36;26.80;78.40
68691;DHT22;55675;49.588;8.640;2023-06-22T06:37:02;26.90;76.50
68691;DHT22;55675;49.588;8.640;2023-06-22T06:39:27;27.10;75.90
68691;DHT22;55675;49.588;8.640;2023-06-22T06:41:53;27.20;75.10
68691;DHT22;55675;49.588;8.640;2023-06-22T06:44:18;27.30;74.50
68691;DHT22;55675;49.588;8.640;2023-06-22T06:46:44;27.50;74.10
68691;DHT22;55675;49.588;8.640;2023-06-22T06:49:09;27.60;73.10
68691;DHT22;55675;49.588;8.640;2023-06-22T06:51:35;27.70;71.50
68691;DHT22;55675;49.588;8.640;2023-06-22T06:54:01;27.70;71.10
68691;DHT22;55675;49.588;8.640;2023-06-22T06:56:26;27.70;70.70
68691;DHT22;55675;49.588;8.640;2023-06-22T06:58:52;27.80;71.50
68691;DHT22;55675;49.588;8.640;2023-06-22T07:01:18;28.00;70.90
68691;DHT22;55675;49.588;8.640;2023-06-22T07:03:45;28.10;70.60
68691;DHT22;55675;49.588;8.640;2023-06-22T07:06:10;28.20;70.20
68691;DHT22;55675;49.588;8.640;2023-06-22T07:08:36;28.30;69.60
68691;DHT22;55675;49.588;8.640;2023-06-22T07:11:02;28.40;68.70
68691;DHT22;55675;49.588;8.640;2023-06-22T07:13:27;28.50;68.50
68691;DHT22;55675;49.588;8.640;2023-06-22T07:15:53;28.50;67.60
68691;DHT22;55675;49.588;8.640;2023-06-22T07:18:19;28.50;67.50
68691;DHT22;55675;49.588;8.640;2023-06-22T07:20:44;28.50;67.20
68691;DHT22;55675;49.588;8.640;2023-06-22T07:23:10;28.60;67.30
68691;DHT22;55675;49.588;8.640;2023-06-22T07:25:35;28.70;66.00
68691;DHT22;55675;49.588;8.640;2023-06-22T07:28:06;28.70;65.60
68691;DHT22;55675;49.588;8.640;2023-06-22T07:30:33;28.70;65.20
68691;DHT22;55675;49.588;8.640;2023-06-22T07:32:59;28.80;65.60
68691;DHT22;55675;49.588;8.640;2023-06-22T07:35:28;28.80;65.00
68691;DHT22;55675;49.588;8.640;2023-06-22T07:37:54;28.90;64.40
68691;DHT22;55675;49.588;8.640;2023-06-22T07:40:20;29.00;64.60
68691;DHT22;55675;49.588;8.640;2023-06-22T07:42:45;29.10;64.10
68691;DHT22;55675;49.588;8.640;2023-06-22T07:45:13;29.20;63.30
68691;DHT22;55675;49.588;8.640;2023-06-22T07:47:39;29.20;62.80
68691;DHT22;55675;49.588;8.640;2023-06-22T07:50:05;29.20;62.10
68691;DHT22;55675;49.588;8.640;2023-06-22T07:52:31;29.30;62.10
68691;DHT22;55675;49.588;8.640;2023-06-22T07:54:57;29.40;62.20
68691;DHT22;55675;49.588;8.640;2023-06-22T07:57:23;29.40;61.20
68691;DHT22;55675;49.588;8.640;2023-06-22T07:59:48;29.50;61.40
68691;DHT22;55675;49.588;8.640;2023-06-22T08:02:14;29.60;60.00
68691;DHT22;55675;49.588;8.640;2023-06-22T08:04:39;29.70;59.00
68691;DHT22;55675;49.588;8.640;2023-06-22T08:07:06;29.70;59.30
68691;DHT22;55675;49.588;8.640;2023-06-22T08:09:32;29.80;59.40
68691;DHT22;55675;49.588;8.640;2023-06-22T08:11:58;29.80;58.80
68691;DHT22;55675;49.588;8.640;2023-06-22T08:14:25;29.80;58.90
68691;DHT22;55675;49.588;8.640;2023-06-22T08:16:51;30.00;58.80
68691;DHT22;55675;49.588;8.640;2023-06-22T08:19:17;30.00;58.10
68691;DHT22;55675;49.588;8.640;2023-06-22T08:21:43;30.10;57.90
68691;DHT22;55675;49.588;8.640;2023-06-22T08:24:08;30.20;57.30
68691;DHT22;55675;49.588;8.640;2023-06-22T08:26:34;30.30;56.50
68691;DHT22;55675;49.588;8.640;2023-06-22T08:29:05;30.40;57.10
68691;DHT22;55675;49.588;8.640;2023-06-22T08:31:31;30.40;55.60
68691;DHT22;55675;49.588;8.640;2023-06-22T08:33:58;30.50;55.30
68691;DHT22;55675;49.588;8.640;2023-06-22T08:36:24;30.70;56.10
68691;DHT22;55675;49.588;8.640;2023-06-22T08:38:50;30.90;56.10
68691;DHT22;55675;49.588;8.640;2023-06-22T08:41:17;31.20;55.00
68691;DHT22;55675;49.588;8.640;2023-06-22T08:43:43;31.30;54.30
68691;DHT22;55675;49.588;8.640;2023-06-22T08:46:09;31.40;54.50
68691;DHT22;55675;49.588;8.640;2023-06-22T08:48:35;31.40;53.20
68691;DHT22;55675;49.588;8.640;2023-06-22T08:51:00;31.40;53.10
68691;DHT22;55675;49.588;8.640;2023-06-22T08:53:26;31.50;53.60
68691;DHT22;55675;49.588;8.640;2023-06-22T08:55:51;31.60;54.00
68691;DHT22;55675;49.588;8.640;2023-06-22T08:58:17;31.80;53.50
68691;DHT22;55675;49.588;8.640;2023-06-22T09:00:43;32.00;52.70
68691;DHT22;55675;49.588;8.640;2023-06-22T09:03:09;32.20;51.70
68691;DHT22;55675;49.588;8.640;2023-06-22T09:05:34;32.20;50.40
68691;DHT22;55675;49.588;8.640;2023-06-22T09:08:00;32.20;50.80
68691;DHT22;55675;49.588;8.640;2023-06-22T09:10:26;32.20;50.50
68691;DHT22;55675;49.588;8.640;2023-06-22T09:12:51;32.40;51.30
68691;DHT22;55675;49.588;8.640;2023-06-22T09:15:17;32.60;50.80
68691;DHT22;55675;49.588;8.640;2023-06-22T09:17:42;32.80;50.10
68691;DHT22;55675;49.588;8.640;2023-06-22T09:20:09;33.10;49.60
68691;DHT22;55675;49.588;8.640;2023-06-22T09:22:36;33.20;48.20
68691;DHT22;55675;49.588;8.640;2023-06-22T09:25:01;33.30;47.90
68691;DHT22;55675;49.588;8.640;2023-06-22T09:27:28;33.30;48.50
68691;DHT22;55675;49.588;8.640;2023-06-22T09:29:54;33.40;48.70
68691;DHT22;55675;49.588;8.640;2023-06-22T09:32:19;33.40;47.70
68691;DHT22;55675;49.588;8.640;2023-06-22T09:34:45;33.50;48.80
68691;DHT22;55675;49.588;8.640;2023-06-22T09:37:10;33.60;48.70
68691;DHT22;55675;49.588;8.640;2023-06-22T09:39:36;33.60;48.90
68691;DHT22;55675;49.588;8.640;2023-06-22T09:42:02;33.50;48.10
68691;DHT22;55675;49.588;8.640;2023-06-22T09:44:28;33.50;47.20
68691;DHT22;55675;49.588;8.640;2023-06-22T09:46:53;33.50;47.30
68691;DHT22;55675;49.588;8.640;2023-06-22T09:49:19;33.40;47.30
68691;DHT22;55675;49.588;8.640;2023-06-22T09:51:44;33.40;47.60
68691;DHT22;55675;49.588;8.640;2023-06-22T09:54:10;33.40;46.90
68691;DHT22;55675;49.588;8.640;2023-06-22T09:56:35;33.50;47.60
68691;DHT22;55675;49.588;8.640;2023-06-22T09:59:02;33.70;47.70
68691;DHT22;55675;49.588;8.640;2023-06-22T10:01:28;33.70;46.30
68691;DHT22;55675;49.588;8.640;2023-06-22T10:03:55;33.90;46.40
68691;DHT22;55675;49.588;8.640;2023-06-22T10:06:21;34.10;45.90
68691;DHT22;55675;49.588;8.640;2023-06-22T10:08:47;34.10;45.00
68691;DHT22;55675;49.588;8.640;2023-06-22T10:11:14;34.20;44.80
68691;DHT22;55675;49.588;8.640;2023-06-22T10:13:39;34.30;45.40
68691;DHT22;55675;49.588;8.640;2023-06-22T10:16:05;34.40;44.60
68691;DHT22;55675;49.588;8.640;2023-06-22T10:18:30;34.40;44.40
68691;DHT22;55675;49.588;8.640;2023-06-22T10:20:56;34.50;44.50
68691;DHT22;55675;49.588;8.640;2023-06-22T10:23:22;34.70;43.90
68691;DHT22;55675;49.588;8.640;2023-06-22T10:25:48;34.80;44.60
68691;DHT22;55675;49.588;8.640;2023-06-22T10:28:14;34.90;43.20
68691;DHT22;55675;49.588;8.640;2023-06-22T10:30:40;35.00;43.30
68691;DHT22;55675;49.588;8.640;2023-06-22T10:33:11;35.10;42.40
68691;DHT22;55675;49.588;8.640;2023-06-22T10:35:38;35.00;42.10
68691;DHT22;55675;49.588;8.640;2023-06-22T10:38:04;34.90;42.10
68691;DHT22;55675;49.588;8.640;2023-06-22T10:40:29;34.90;42.70
68691;DHT22;55675;49.588;8.640;2023-06-22T10:42:55;35.00;44.20
68691;DHT22;55675;49.588;8.640;2023-06-22T10:45:20;35.10;43.50
68691;DHT22;55675;49.588;8.640;2023-06-22T10:47:46;35.40;43.60
68691;DHT22;55675;49.588;8.640;2023-06-22T10:50:11;35.50;42.30
68691;DHT22;55675;49.588;8.640;2023-06-22T10:52:37;35.60;43.10
68691;DHT22;55675;49.588;8.640;2023-06-22T10:55:03;35.60;43.00
68691;DHT22;55675;49.588;8.640;2023-06-22T10:57:29;35.60;41.80
68691;DHT22;55675;49.588;8.640;2023-06-22T10:59:54;35.50;42.00
68691;DHT22;55675;49.588;8.640;2023-06-22T11:02:20;35.50;42.20
68691;DHT22;55675;49.588;8.640;2023-06-22T11:04:45;35.50;42.70
68691;DHT22;55675;49.588;8.640;2023-06-22T11:07:11;35.60;43.10
68691;DHT22;55675;49.588;8.640;2023-06-22T11:09:37;35.70;42.00
68691;DHT22;55675;49.588;8.640;2023-06-22T11:12:04;35.80;41.20
68691;DHT22;55675;49.588;8.640;2023-06-22T11:14:29;36.00;41.20
68691;DHT22;55675;49.588;8.640;2023-06-22T11:16:55;36.20;41.80
68691;DHT22;55675;49.588;8.640;2023-06-22T11:19:21;36.40;41.40
68691;DHT22;55675;49.588;8.640;2023-06-22T11:21:47;36.60;41.00
68691;DHT22;55675;49.588;8.640;2023-06-22T11:24:12;36.70;40.40
68691;DHT22;55675;49.588;8.640;2023-06-22T11:26:38;36.80;39.90
68691;DHT22;55675;49.588;8.640;2023-06-22T11:29:03;36.90;39.10
68691;DHT22;55675;49.588;8.640;2023-06-22T11:31:31;37.10;39.60
68691;DHT22;55675;49.588;8.640;2023-06-22T11:33:57;37.30;39.70
68691;DHT22;55675;49.588;8.640;2023-06-22T11:36:22;37.50;38.90
68691;DHT22;55675;49.588;8.640;2023-06-22T11:38:48;37.50;37.80
68691;DHT22;55675;49.588;8.640;2023-06-22T11:41:14;37.60;38.40
68691;DHT22;55675;49.588;8.640;2023-06-22T11:43:39;37.70;38.10
68691;DHT22;55675;49.588;8.640;2023-06-22T11:46:05;37.80;38.70
68691;DHT22;55675;49.588;8.640;2023-06-22T11:48:31;38.10;38.00
68691;DHT22;55675;49.588;8.640;2023-06-22T11:50:56;38.30;36.80
68691;DHT22;55675;49.588;8.640;2023-06-22T11:53:24;38.30;36.10
68691;DHT22;55675;49.588;8.640;2023-06-22T11:55:50;38.20;36.80
68691;DHT22;55675;49.588;8.640;2023-06-22T11:58:16;38.20;36.90
68691;DHT22;55675;49.588;8.640;2023-06-22T12:00:41;38.10;37.20
68691;DHT22;55675;49.588;8.640;2023-06-22T12:03:08;38.10;36.80
68691;DHT22;55675;49.588;8.640;2023-06-22T12:05:34;38.10;37.20
68691;DHT22;55675;49.588;8.640;2023-06-22T12:08:00;38.10;38.00
68691;DHT22;55675;49.588;8.640;2023-06-22T12:10:26;38.20;38.30
68691;DHT22;55675;49.588;8.640;2023-06-22T12:12:52;38.30;38.10
68691;DHT22;55675;49.588;8.640;2023-06-22T12:15:18;38.40;39.00
68691;DHT22;55675;49.588;8.640;2023-06-22T12:17:44;38.40;38.70
68691;DHT22;55675;49.588;8.640;2023-06-22T12:20:09;38.30;38.30
68691;DHT22;55675;49.588;8.640;2023-06-22T12:22:35;38.30;37.60
68691;DHT22;55675;49.588;8.640;2023-06-22T12:25:03;38.30;37.60
68691;DHT22;55675;49.588;8.640;2023-06-22T12:27:29;38.30;37.60
68691;DHT22;55675;49.588;8.640;2023-06-22T12:29:56;38.40;37.40
68691;DHT22;55675;49.588;8.640;2023-06-22T12:32:21;38.50;36.90
68691;DHT22;55675;49.588;8.640;2023-06-22T12:34:47;38.60;38.30
68691;DHT22;55675;49.588;8.640;2023-06-22T12:37:12;38.70;37.60
68691;DHT22;55675;49.588;8.640;2023-06-22T12:39:40;38.70;36.70
68691;DHT22;55675;49.588;8.640;2023-06-22T12:42:06;38.60;36.80
68691;DHT22;55675;49.588;8.640;2023-06-22T12:44:34;38.60;37.20
68691;DHT22;55675;49.588;8.640;2023-06-22T12:46:59;38.60;36.80
68691;DHT22;55675;49.588;8.640;2023-06-22T12:49:25;38.60;36.70
68691;DHT22;55675;49.588;8.640;2023-06-22T12:51:50;38.60;37.50
68691;DHT22;55675;49.588;8.640;2023-06-22T12:54:16;38.50;35.80
68691;DHT22;55675;49.588;8.640;2023-06-22T12:56:42;38.70;36.00
68691;DHT22;55675;49.588;8.640;2023-06-22T12:59:09;38.70;35.70
68691;DHT22;55675;49.588;8.640;2023-06-22T13:01:34;39.00;35.60
68691;DHT22;55675;49.588;8.640;2023-06-22T13:04:00;39.30;34.50
68691;DHT22;55675;49.588;8.640;2023-06-22T13:06:26;39.60;35.20
68691;DHT22;55675;49.588;8.640;2023-06-22T13:08:51;39.70;35.60
68691;DHT22;55675;49.588;8.640;2023-06-22T13:11:17;39.70;32.70
68691;DHT22;55675;49.588;8.640;2023-06-22T13:13:44;39.70;32.50
68691;DHT22;55675;49.588;8.640;2023-06-22T13:16:10;39.70;34.10
68691;DHT22;55675;49.588;8.640;2023-06-22T13:18:35;39.80;33.40
68691;DHT22;55675;49.588;8.640;2023-06-22T13:21:02;39.80;33.40
68691;DHT22;55675;49.588;8.640;2023-06-22T13:23:27;39.70;33.70
68691;DHT22;55675;49.588;8.640;2023-06-22T13:25:53;39.80;33.70
68691;DHT22;55675;49.588;8.640;2023-06-22T13:28:18;39.80;33.30
68691;DHT22;55675;49.588;8.640;2023-06-22T13:30:46;39.80;33.00
68691;DHT22;55675;49.588;8.640;2023-06-22T13:33:15;39.80;33.90
68691;DHT22;55675;49.588;8.640;2023-06-22T13:35:41;39.90;33.60
68691;DHT22;55675;49.588;8.640;2023-06-22T13:38:09;40.00;33.10
68691;DHT22;55675;49.588;8.640;2023-06-22T13:40:35;40.00;34.20
68691;DHT22;55675;49.588;8.640;2023-06-22T13:43:01;40.20;33.60
68691;DHT22;55675;49.588;8.640;2023-06-22T13:45:27;40.20;32.80
68691;DHT22;55675;49.588;8.640;2023-06-22T13:47:53;40.20;32.70
68691;DHT22;55675;49.588;8.640;2023-06-22T13:50:18;40.40;32.90
68691;DHT22;55675;49.588;8.640;2023-06-22T13:52:44;40.50;33.30
68691;DHT22;55675;49.588;8.640;2023-06-22T13:55:09;40.80;32.20
68691;DHT22;55675;49.588;8.640;2023-06-22T13:57:35;41.10;31.50
68691;DHT22;55675;49.588;8.640;2023-06-22T14:00:01;41.70;31.20
68691;DHT22;55675;49.588;8.640;2023-06-22T14:02:27;44.00;30.00
68691;DHT22;55675;49.588;8.640;2023-06-22T14:04:53;45.50;27.70
68691;DHT22;55675;49.588;8.640;2023-06-22T14:07:19;45.50;27.20
68691;DHT22;55675;49.588;8.640;2023-06-22T14:09:47;46.00;26.40
68691;DHT22;55675;49.588;8.640;2023-06-22T14:12:13;45.10;27.20
68691;DHT22;55675;49.588;8.640;2023-06-22T14:14:39;44.40;26.80
68691;DHT22;55675;49.588;8.640;2023-06-22T14:17:05;43.10;27.90
68691;DHT22;55675;49.588;8.640;2023-06-22T14:19:31;41.90;29.00
68691;DHT22;55675;49.588;8.640;2023-06-22T14:21:56;40.80;30.10
68691;DHT22;55675;49.588;8.640;2023-06-22T14:24:22;39.90;31.20
68691;DHT22;55675;49.588;8.640;2023-06-22T14:26:48;39.00;32.50
68691;DHT22;55675;49.588;8.640;2023-06-22T14:29:13;38.20;34.00
68691;DHT22;55675;49.588;8.640;2023-06-22T14:31:39;37.40;35.20
68691;DHT22;55675;49.588;8.640;2023-06-22T14:34:04;36.80;36.80
68691;DHT22;55675;49.588;8.640;2023-06-22T14:36:31;36.30;37.30
68691;DHT22;55675;49.588;8.640;2023-06-22T14:38:56;35.90;37.90
68691;DHT22;55675;49.588;8.640;2023-06-22T14:41:22;35.50;38.90
68691;DHT22;55675;49.588;8.640;2023-06-22T14:43:48;35.30;40.00
68691;DHT22;55675;49.588;8.640;2023-06-22T14:46:14;35.20;40.10
68691;DHT22;55675;49.588;8.640;2023-06-22T14:48:40;35.30;40.90
68691;DHT22;55675;49.588;8.640;2023-06-22T14:51:06;35.50;40.30
68691;DHT22;55675;49.588;8.640;2023-06-22T14:53:31;35.90;40.90
68691;DHT22;55675;49.588;8.640;2023-06-22T14:55:56;36.20;39.60
68691;DHT22;55675;49.588;8.640;2023-06-22T14:58:22;36.50;39.50
68691;DHT22;55675;49.588;8.640;2023-06-22T15:00:47;36.70;39.10
68691;DHT22;55675;49.588;8.640;2023-06-22T15:03:13;36.70;38.40
68691;DHT22;55675;49.588;8.640;2023-06-22T15:05:43;36.60;38.40
68691;DHT22;55675;49.588;8.640;2023-06-22T15:08:09;36.40;38.30
68691;DHT22;55675;49.588;8.640;2023-06-22T15:10:34;36.20;38.60
68691;DHT22;55675;49.588;8.640;2023-06-22T15:12:59;36.10;38.70
68691;DHT22;55675;49.588;8.640;2023-06-22T15:15:25;36.00;39.00
68691;DHT22;55675;49.588;8.640;2023-06-22T15:17:50;35.90;39.20
68691;DHT22;55675;49.588;8.640;2023-06-22T15:20:16;35.90;40.10
68691;DHT22;55675;49.588;8.640;2023-06-22T15:22:41;36.10;39.60
68691;DHT22;55675;49.588;8.640;2023-06-22T15:25:07;36.50;39.70
68691;DHT22;55675;49.588;8.640;2023-06-22T15:27:32;37.10;38.20